sensor_id;sensor_type;location;lat;lon;timestamp;P1;durP1;ratioP1;P2;durP2;ratioP2
51010;SDS011;37038;50.182;8.624;2022-12-29T00:02:28;4.45;;;3.58;;
51010;SDS011;37038;50.182;8.624;2022-12-29T00:05:20;3.45;;;3.15;;
51010;SDS011;37038;50.182;8.624;2022-12-29T00:08:17;6.88;;;3.65;;
51010;SDS011;37038;50.182;8.624;2022-12-29T00:11:30;6.82;;;4.18;;
51010;SDS011;37038;50.182;8.624;2022-12-29T00:14:19;4.75;;;3.72;;
51010;SDS011;37038;50.182;8.624;2022-12-29T00:17:28;3.67;;;3.28;;
51010;SDS011;37038;50.182;8.624;2022-12-29T00:20:19;4.53;;;3.60;;
51010;SDS011;37038;50.182;8.624;2022-12-29T00:23:28;5.25;;;3.47;;
51010;SDS011;37038;50.182;8.624;2022-12-29T00:26:43;5.70;;;4.05;;
51010;SDS011;37038;50.182;8.624;2022-12-29T00:29:51;5.70;;;3.50;;
51010;SDS011;37038;50.182;8.624;2022-12-29T00:33:04;6.90;;;3.35;;
51010;SDS011;37038;50.182;8.624;2022-12-29T00:39:25;3.83;;;3.20;;
51010;SDS011;37038;50.182;8.624;2022-12-29T00:42:48;6.05;;;3.38;;
51010;SDS011;37038;50.182;8.624;2022-12-29T00:45:55;4.00;;;3.58;;
51010;SDS011;37038;50.182;8.624;2022-12-29T00:48:47;5.90;;;3.53;;
51010;SDS011;37038;50.182;8.624;2022-12-29T00:51:58;5.15;;;3.53;;
51010;SDS011;37038;50.182;8.624;2022-12-29T00:55:02;4.93;;;3.15;;
51010;SDS011;37038;50.182;8.624;2022-12-29T00:57:58;5.65;;;3.25;;
51010;SDS011;37038;50.182;8.624;2022-12-29T01:00:49;6.65;;;3.35;;
51010;SDS011;37038;50.182;8.624;2022-12-29T01:03:38;8.30;;;3.20;;
51010;SDS011;37038;50.182;8.624;2022-12-29T01:06:29;5.30;;;3.42;;
51010;SDS011;37038;50.182;8.624;2022-12-29T01:09:19;5.50;;;2.95;;
51010;SDS011;37038;50.182;8.624;2022-12-29T01:12:33;6.15;;;3.30;;
51010;SDS011;37038;50.182;8.624;2022-12-29T01:15:36;5.60;;;2.88;;
51010;SDS011;37038;50.182;8.624;2022-12-29T01:18:30;3.63;;;2.88;;
51010;SDS011;37038;50.182;8.624;2022-12-29T01:21:22;4.30;;;3.17;;
51010;SDS011;37038;50.182;8.624;2022-12-29T01:24:22;4.60;;;3.20;;
51010;SDS011;37038;50.182;8.624;2022-12-29T01:27:13;6.93;;;3.15;;
51010;SDS011;37038;50.182;8.624;2022-12-29T01:30:03;3.53;;;2.75;;
51010;SDS011;37038;50.182;8.624;2022-12-29T01:32:55;4.10;;;3.08;;
51010;SDS011;37038;50.182;8.624;2022-12-29T01:35:43;5.93;;;3.17;;
51010;SDS011;37038;50.182;8.624;2022-12-29T01:38:33;6.18;;;3.28;;
51010;SDS011;37038;50.182;8.624;2022-12-29T01:41:23;7.20;;;2.63;;
51010;SDS011;37038;50.182;8.624;2022-12-29T01:47:52;5.88;;;2.70;;
51010;SDS011;37038;50.182;8.624;2022-12-29T01:50:49;2.70;;;2.38;;
51010;SDS011;37038;50.182;8.624;2022-12-29T01:53:41;4.80;;;2.88;;
51010;SDS011;37038;50.182;8.624;2022-12-29T01:56:32;3.70;;;2.70;;
51010;SDS011;37038;50.182;8.624;2022-12-29T01:59:29;5.07;;;3.00;;
51010;SDS011;37038;50.182;8.624;2022-12-29T02:02:25;6.82;;;3.08;;
51010;SDS011;37038;50.182;8.624;2022-12-29T02:05:24;3.38;;;2.70;;
51010;SDS011;37038;50.182;8.624;2022-12-29T02:08:28;4.68;;;2.63;;
51010;SDS011;37038;50.182;8.624;2022-12-29T02:11:17;4.05;;;3.47;;
51010;SDS011;37038;50.182;8.624;2022-12-29T02:14:16;3.60;;;2.80;;
51010;SDS011;37038;50.182;8.624;2022-12-29T02:34:29;2.60;;;2.40;;
51010;SDS011;37038;50.182;8.624;2022-12-29T02:37:31;2.80;;;2.38;;
51010;SDS011;37038;50.182;8.624;2022-12-29T02:40:40;2.33;;;2.13;;
51010;SDS011;37038;50.182;8.624;2022-12-29T02:44:10;6.10;;;2.67;;
51010;SDS011;37038;50.182;8.624;2022-12-29T02:47:29;2.92;;;2.30;;
51010;SDS011;37038;50.182;8.624;2022-12-29T02:50:47;2.83;;;2.50;;
51010;SDS011;37038;50.182;8.624;2022-12-29T02:54:08;4.32;;;2.17;;
51010;SDS011;37038;50.182;8.624;2022-12-29T03:00:18;7.72;;;2.50;;
51010;SDS011;37038;50.182;8.624;2022-12-29T03:16:24;3.33;;;2.15;;
51010;SDS011;37038;50.182;8.624;2022-12-29T03:19:35;4.13;;;2.10;;
51010;SDS011;37038;50.182;8.624;2022-12-29T03:22:44;4.72;;;2.30;;
51010;SDS011;37038;50.182;8.624;2022-12-29T03:25:38;3.33;;;2.10;;
51010;SDS011;37038;50.182;8.624;2022-12-29T03:28:39;3.67;;;1.80;;
51010;SDS011;37038;50.182;8.624;2022-12-29T03:31:42;4.25;;;2.05;;
51010;SDS011;37038;50.182;8.624;2022-12-29T03:34:33;3.27;;;2.33;;
51010;SDS011;37038;50.182;8.624;2022-12-29T03:37:31;3.78;;;1.70;;
51010;SDS011;37038;50.182;8.624;2022-12-29T03:40:30;2.33;;;2.13;;
51010;SDS011;37038;50.182;8.624;2022-12-29T03:43:37;3.33;;;2.38;;
51010;SDS011;37038;50.182;8.624;2022-12-29T03:46:26;2.60;;;1.90;;
51010;SDS011;37038;50.182;8.624;2022-12-29T03:49:15;2.30;;;1.90;;
51010;SDS011;37038;50.182;8.624;2022-12-29T03:52:04;3.88;;;2.00;;
51010;SDS011;37038;50.182;8.624;2022-12-29T03:54:56;5.05;;;2.20;;
51010;SDS011;37038;50.182;8.624;2022-12-29T03:57:56;5.03;;;2.08;;
51010;SDS011;37038;50.182;8.624;2022-12-29T04:00:44;5.07;;;2.33;;
51010;SDS011;37038;50.182;8.624;2022-12-29T04:03:33;4.38;;;2.10;;
51010;SDS011;37038;50.182;8.624;2022-12-29T04:06:21;2.17;;;1.98;;
51010;SDS011;37038;50.182;8.624;2022-12-29T04:09:24;3.15;;;1.95;;
51010;SDS011;37038;50.182;8.624;2022-12-29T04:12:20;5.20;;;2.22;;
51010;SDS011;37038;50.182;8.624;2022-12-29T04:15:16;3.55;;;1.90;;
51010;SDS011;37038;50.182;8.624;2022-12-29T04:18:11;5.20;;;2.05;;
51010;SDS011;37038;50.182;8.624;2022-12-29T04:21:03;3.58;;;2.33;;
51010;SDS011;37038;50.182;8.624;2022-12-29T04:23:53;3.25;;;2.55;;
51010;SDS011;37038;50.182;8.624;2022-12-29T04:26:42;3.42;;;2.72;;
51010;SDS011;37038;50.182;8.624;2022-12-29T04:29:30;2.47;;;2.28;;
51010;SDS011;37038;50.182;8.624;2022-12-29T04:32:20;3.15;;;2.30;;
51010;SDS011;37038;50.182;8.624;2022-12-29T04:35:08;3.72;;;2.40;;
51010;SDS011;37038;50.182;8.624;2022-12-29T04:37:58;4.25;;;2.70;;
51010;SDS011;37038;50.182;8.624;2022-12-29T04:40:51;6.00;;;2.28;;
51010;SDS011;37038;50.182;8.624;2022-12-29T04:43:40;2.80;;;2.50;;
51010;SDS011;37038;50.182;8.624;2022-12-29T04:46:31;7.18;;;2.58;;
51010;SDS011;37038;50.182;8.624;2022-12-29T04:49:23;5.35;;;2.35;;
51010;SDS011;37038;50.182;8.624;2022-12-29T04:52:13;7.35;;;3.30;;
51010;SDS011;37038;50.182;8.624;2022-12-29T04:55:04;5.13;;;2.50;;
51010;SDS011;37038;50.182;8.624;2022-12-29T04:57:58;6.90;;;2.40;;
51010;SDS011;37038;50.182;8.624;2022-12-29T05:00:56;5.03;;;2.35;;
51010;SDS011;37038;50.182;8.624;2022-12-29T05:03:52;5.57;;;2.65;;
51010;SDS011;37038;50.182;8.624;2022-12-29T05:06:45;3.60;;;2.50;;
51010;SDS011;37038;50.182;8.624;2022-12-29T05:09:33;6.35;;;2.53;;
51010;SDS011;37038;50.182;8.624;2022-12-29T05:12:25;3.30;;;2.05;;
51010;SDS011;37038;50.182;8.624;2022-12-29T05:15:23;5.00;;;2.40;;
51010;SDS011;37038;50.182;8.624;2022-12-29T05:18:12;3.00;;;1.90;;
51010;SDS011;37038;50.182;8.624;2022-12-29T05:21:04;3.22;;;1.77;;
51010;SDS011;37038;50.182;8.624;2022-12-29T05:24:01;2.75;;;1.83;;
51010;SDS011;37038;50.182;8.624;2022-12-29T05:26:52;3.35;;;2.63;;
51010;SDS011;37038;50.182;8.624;2022-12-29T05:29:40;2.20;;;1.90;;
51010;SDS011;37038;50.182;8.624;2022-12-29T05:32:31;3.15;;;2.08;;
51010;SDS011;37038;50.182;8.624;2022-12-29T05:35:21;3.90;;;1.98;;
51010;SDS011;37038;50.182;8.624;2022-12-29T05:38:11;5.25;;;2.42;;
51010;SDS011;37038;50.182;8.624;2022-12-29T05:41:05;6.13;;;1.98;;
51010;SDS011;37038;50.182;8.624;2022-12-29T05:44:02;5.72;;;2.42;;
51010;SDS011;37038;50.182;8.624;2022-12-29T05:46:51;5.43;;;2.38;;
51010;SDS011;37038;50.182;8.624;2022-12-29T05:49:40;4.22;;;2.40;;
51010;SDS011;37038;50.182;8.624;2022-12-29T05:52:28;10.07;;;2.63;;
51010;SDS011;37038;50.182;8.624;2022-12-29T05:55:19;3.50;;;2.28;;
51010;SDS011;37038;50.182;8.624;2022-12-29T05:58:16;4.15;;;2.47;;
51010;SDS011;37038;50.182;8.624;2022-12-29T06:01:05;5.05;;;2.28;;
51010;SDS011;37038;50.182;8.624;2022-12-29T06:04:03;2.88;;;2.40;;
51010;SDS011;37038;50.182;8.624;2022-12-29T06:06:51;4.78;;;2.22;;
51010;SDS011;37038;50.182;8.624;2022-12-29T06:09:42;5.32;;;2.95;;
51010;SDS011;37038;50.182;8.624;2022-12-29T06:12:33;4.97;;;2.53;;
51010;SDS011;37038;50.182;8.624;2022-12-29T06:15:23;5.78;;;2.53;;
51010;SDS011;37038;50.182;8.624;2022-12-29T06:18:14;4.25;;;2.70;;
51010;SDS011;37038;50.182;8.624;2022-12-29T06:21:06;5.13;;;2.22;;
51010;SDS011;37038;50.182;8.624;2022-12-29T06:23:57;2.95;;;2.30;;
51010;SDS011;37038;50.182;8.624;2022-12-29T06:26:49;6.20;;;2.38;;
51010;SDS011;37038;50.182;8.624;2022-12-29T06:29:40;4.43;;;2.47;;
51010;SDS011;37038;50.182;8.624;2022-12-29T06:32:30;2.42;;;2.08;;
51010;SDS011;37038;50.182;8.624;2022-12-29T06:35:24;5.32;;;2.80;;
51010;SDS011;37038;50.182;8.624;2022-12-29T06:38:13;3.45;;;2.50;;
51010;SDS011;37038;50.182;8.624;2022-12-29T06:41:01;5.20;;;2.10;;
51010;SDS011;37038;50.182;8.624;2022-12-29T06:43:56;4.20;;;2.13;;
51010;SDS011;37038;50.182;8.624;2022-12-29T06:46:48;2.75;;;2.20;;
51010;SDS011;37038;50.182;8.624;2022-12-29T06:49:37;3.75;;;2.30;;
51010;SDS011;37038;50.182;8.624;2022-12-29T06:52:25;3.83;;;2.30;;
51010;SDS011;37038;50.182;8.624;2022-12-29T06:55:16;4.45;;;2.38;;
51010;SDS011;37038;50.182;8.624;2022-12-29T06:58:10;8.82;;;2.95;;
51010;SDS011;37038;50.182;8.624;2022-12-29T07:01:01;5.75;;;2.35;;
51010;SDS011;37038;50.182;8.624;2022-12-29T07:03:57;4.85;;;2.38;;
51010;SDS011;37038;50.182;8.624;2022-12-29T07:06:45;6.55;;;2.75;;
51010;SDS011;37038;50.182;8.624;2022-12-29T07:09:41;5.57;;;3.45;;
51010;SDS011;37038;50.182;8.624;2022-12-29T07:12:29;4.38;;;2.90;;
51010;SDS011;37038;50.182;8.624;2022-12-29T07:15:23;5.80;;;2.63;;
51010;SDS011;37038;50.182;8.624;2022-12-29T07:18:25;3.15;;;2.83;;
51010;SDS011;37038;50.182;8.624;2022-12-29T07:21:18;8.27;;;2.55;;
51010;SDS011;37038;50.182;8.624;2022-12-29T07:24:09;8.80;;;3.45;;
51010;SDS011;37038;50.182;8.624;2022-12-29T07:27:03;3.93;;;2.27;;
51010;SDS011;37038;50.182;8.624;2022-12-29T07:30:06;2.95;;;2.60;;
51010;SDS011;37038;50.182;8.624;2022-12-29T07:33:23;8.38;;;3.42;;
51010;SDS011;37038;50.182;8.624;2022-12-29T07:36:20;5.57;;;2.63;;
51010;SDS011;37038;50.182;8.624;2022-12-29T07:39:46;6.40;;;2.92;;
51010;SDS011;37038;50.182;8.624;2022-12-29T07:45:52;12.57;;;3.42;;
51010;SDS011;37038;50.182;8.624;2022-12-29T07:48:49;6.60;;;2.60;;
51010;SDS011;37038;50.182;8.624;2022-12-29T07:51:47;6.28;;;3.03;;
51010;SDS011;37038;50.182;8.624;2022-12-29T07:55:02;4.85;;;3.00;;
51010;SDS011;37038;50.182;8.624;2022-12-29T07:58:21;5.50;;;3.13;;
51010;SDS011;37038;50.182;8.624;2022-12-29T08:01:20;4.20;;;2.78;;
51010;SDS011;37038;50.182;8.624;2022-12-29T08:04:21;4.90;;;2.70;;
51010;SDS011;37038;50.182;8.624;2022-12-29T08:07:26;4.85;;;2.72;;
51010;SDS011;37038;50.182;8.624;2022-12-29T08:10:33;5.43;;;2.83;;
51010;SDS011;37038;50.182;8.624;2022-12-29T08:13:49;5.68;;;3.15;;
51010;SDS011;37038;50.182;8.624;2022-12-29T08:16:46;4.40;;;2.92;;
51010;SDS011;37038;50.182;8.624;2022-12-29T08:20:05;4.60;;;3.15;;
51010;SDS011;37038;50.182;8.624;2022-12-29T08:37:34;5.78;;;3.10;;
51010;SDS011;37038;50.182;8.624;2022-12-29T08:40:26;5.97;;;3.50;;
51010;SDS011;37038;50.182;8.624;2022-12-29T08:43:20;6.72;;;3.33;;
51010;SDS011;37038;50.182;8.624;2022-12-29T08:46:46;6.10;;;3.38;;
51010;SDS011;37038;50.182;8.624;2022-12-29T08:49:49;5.28;;;3.30;;
51010;SDS011;37038;50.182;8.624;2022-12-29T08:53:11;5.78;;;3.58;;
51010;SDS011;37038;50.182;8.624;2022-12-29T08:56:18;5.32;;;3.47;;
51010;SDS011;37038;50.182;8.624;2022-12-29T08:59:17;5.82;;;3.67;;
51010;SDS011;37038;50.182;8.624;2022-12-29T09:02:49;9.10;;;4.03;;
51010;SDS011;37038;50.182;8.624;2022-12-29T09:06:16;9.88;;;4.07;;
51010;SDS011;37038;50.182;8.624;2022-12-29T09:09:56;7.95;;;4.43;;
51010;SDS011;37038;50.182;8.624;2022-12-29T09:13:01;6.50;;;4.25;;
51010;SDS011;37038;50.182;8.624;2022-12-29T09:16:20;9.30;;;4.68;;
51010;SDS011;37038;50.182;8.624;2022-12-29T09:19:15;7.57;;;4.22;;
51010;SDS011;37038;50.182;8.624;2022-12-29T09:22:12;11.20;;;5.35;;
51010;SDS011;37038;50.182;8.624;2022-12-29T09:27:39;7.20;;;4.50;;
51010;SDS011;37038;50.182;8.624;2022-12-29T09:31:17;7.82;;;4.65;;
51010;SDS011;37038;50.182;8.624;2022-12-29T09:34:17;11.25;;;5.57;;
51010;SDS011;37038;50.182;8.624;2022-12-29T09:37:08;4.93;;;3.65;;
51010;SDS011;37038;50.182;8.624;2022-12-29T09:42:42;8.60;;;4.40;;
51010;SDS011;37038;50.182;8.624;2022-12-29T09:52:48;10.70;;;4.20;;
51010;SDS011;37038;50.182;8.624;2022-12-29T09:55:48;6.80;;;4.25;;
51010;SDS011;37038;50.182;8.624;2022-12-29T10:02:23;8.02;;;4.47;;
51010;SDS011;37038;50.182;8.624;2022-12-29T10:09:02;8.25;;;4.68;;
51010;SDS011;37038;50.182;8.624;2022-12-29T10:22:30;7.15;;;3.70;;
51010;SDS011;37038;50.182;8.624;2022-12-29T10:26:04;3.30;;;3.00;;
51010;SDS011;37038;50.182;8.624;2022-12-29T10:29:19;4.88;;;3.05;;
51010;SDS011;37038;50.182;8.624;2022-12-29T10:32:38;6.22;;;2.92;;
51010;SDS011;37038;50.182;8.624;2022-12-29T10:35:51;8.13;;;2.83;;
51010;SDS011;37038;50.182;8.624;2022-12-29T10:42:46;6.55;;;2.42;;
51010;SDS011;37038;50.182;8.624;2022-12-29T10:45:53;3.45;;;2.28;;
51010;SDS011;37038;50.182;8.624;2022-12-29T10:49:14;3.60;;;2.08;;
51010;SDS011;37038;50.182;8.624;2022-12-29T10:52:19;2.65;;;2.20;;
51010;SDS011;37038;50.182;8.624;2022-12-29T10:55:45;3.78;;;2.03;;
51010;SDS011;37038;50.182;8.624;2022-12-29T10:58:55;4.65;;;1.60;;
51010;SDS011;37038;50.182;8.624;2022-12-29T11:05:35;3.83;;;1.48;;
51010;SDS011;37038;50.182;8.624;2022-12-29T11:09:31;1.73;;;1.63;;
51010;SDS011;37038;50.182;8.624;2022-12-29T11:13:00;1.80;;;1.02;;
51010;SDS011;37038;50.182;8.624;2022-12-29T11:16:24;2.53;;;0.85;;
51010;SDS011;37038;50.182;8.624;2022-12-29T11:19:43;1.65;;;1.13;;
51010;SDS011;37038;50.182;8.624;2022-12-29T11:25:43;1.63;;;1.15;;
51010;SDS011;37038;50.182;8.624;2022-12-29T11:33:02;1.65;;;1.00;;
51010;SDS011;37038;50.182;8.624;2022-12-29T11:36:04;1.88;;;1.02;;
51010;SDS011;37038;50.182;8.624;2022-12-29T11:39:34;1.05;;;0.90;;
51010;SDS011;37038;50.182;8.624;2022-12-29T11:42:57;3.40;;;1.50;;
51010;SDS011;37038;50.182;8.624;2022-12-29T11:45:56;4.50;;;1.85;;
51010;SDS011;37038;50.182;8.624;2022-12-29T11:48:51;2.75;;;1.10;;
51010;SDS011;37038;50.182;8.624;2022-12-29T11:51:56;7.68;;;1.63;;
51010;SDS011;37038;50.182;8.624;2022-12-29T11:54:52;3.93;;;1.17;;
51010;SDS011;37038;50.182;8.624;2022-12-29T11:57:59;2.75;;;0.98;;
51010;SDS011;37038;50.182;8.624;2022-12-29T12:00:58;1.70;;;1.15;;
51010;SDS011;37038;50.182;8.624;2022-12-29T12:04:29;2.28;;;1.25;;
51010;SDS011;37038;50.182;8.624;2022-12-29T12:07:35;2.03;;;0.98;;
51010;SDS011;37038;50.182;8.624;2022-12-29T12:10:55;2.30;;;1.05;;
51010;SDS011;37038;50.182;8.624;2022-12-29T12:14:28;3.83;;;1.20;;
51010;SDS011;37038;50.182;8.624;2022-12-29T12:18:00;4.20;;;1.33;;
51010;SDS011;37038;50.182;8.624;2022-12-29T12:24:49;2.95;;;1.20;;
51010;SDS011;37038;50.182;8.624;2022-12-29T12:27:55;2.20;;;1.20;;
51010;SDS011;37038;50.182;8.624;2022-12-29T12:31:38;4.00;;;1.20;;
51010;SDS011;37038;50.182;8.624;2022-12-29T12:34:59;4.57;;;1.30;;
51010;SDS011;37038;50.182;8.624;2022-12-29T12:37:57;3.35;;;1.67;;
51010;SDS011;37038;50.182;8.624;2022-12-29T12:45:43;3.97;;;1.15;;
51010;SDS011;37038;50.182;8.624;2022-12-29T13:07:32;1.52;;;1.02;;
51010;SDS011;37038;50.182;8.624;2022-12-29T13:10:42;3.53;;;2.33;;
51010;SDS011;37038;50.182;8.624;2022-12-29T13:17:48;1.50;;;1.20;;
51010;SDS011;37038;50.182;8.624;2022-12-29T13:21:06;1.98;;;1.10;;
51010;SDS011;37038;50.182;8.624;2022-12-29T13:28:06;4.45;;;1.60;;
51010;SDS011;37038;50.182;8.624;2022-12-29T13:31:28;7.55;;;1.60;;
51010;SDS011;37038;50.182;8.624;2022-12-29T13:41:34;6.00;;;1.80;;
51010;SDS011;37038;50.182;8.624;2022-12-29T13:44:43;2.92;;;1.25;;
51010;SDS011;37038;50.182;8.624;2022-12-29T13:47:59;4.97;;;1.60;;
51010;SDS011;37038;50.182;8.624;2022-12-29T13:51:22;3.75;;;1.60;;
51010;SDS011;37038;50.182;8.624;2022-12-29T13:54:17;6.53;;;1.70;;
51010;SDS011;37038;50.182;8.624;2022-12-29T14:04:26;2.60;;;1.45;;
51010;SDS011;37038;50.182;8.624;2022-12-29T14:07:39;2.72;;;1.60;;
51010;SDS011;37038;50.182;8.624;2022-12-29T14:13:53;4.85;;;1.40;;
51010;SDS011;37038;50.182;8.624;2022-12-29T14:17:18;4.88;;;1.80;;
51010;SDS011;37038;50.182;8.624;2022-12-29T14:20:35;6.00;;;1.85;;
51010;SDS011;37038;50.182;8.624;2022-12-29T14:23:47;2.85;;;1.58;;
51010;SDS011;37038;50.182;8.624;2022-12-29T14:26:45;4.28;;;1.73;;
51010;SDS011;37038;50.182;8.624;2022-12-29T14:29:58;4.80;;;1.50;;
51010;SDS011;37038;50.182;8.624;2022-12-29T14:33:10;3.00;;;1.73;;
51010;SDS011;37038;50.182;8.624;2022-12-29T14:36:26;3.28;;;1.52;;
51010;SDS011;37038;50.182;8.624;2022-12-29T14:39:36;3.25;;;1.42;;
51010;SDS011;37038;50.182;8.624;2022-12-29T14:42:40;5.28;;;2.00;;
51010;SDS011;37038;50.182;8.624;2022-12-29T14:45:43;6.60;;;2.00;;
51010;SDS011;37038;50.182;8.624;2022-12-29T14:48:42;6.05;;;1.88;;
51010;SDS011;37038;50.182;8.624;2022-12-29T14:58:53;5.50;;;2.15;;
51010;SDS011;37038;50.182;8.624;2022-12-29T15:01:56;5.32;;;1.60;;
51010;SDS011;37038;50.182;8.624;2022-12-29T15:05:22;8.88;;;2.40;;
51010;SDS011;37038;50.182;8.624;2022-12-29T15:08:26;4.18;;;1.50;;
51010;SDS011;37038;50.182;8.624;2022-12-29T15:11:47;7.30;;;1.92;;
51010;SDS011;37038;50.182;8.624;2022-12-29T15:15:42;2.63;;;1.70;;
51010;SDS011;37038;50.182;8.624;2022-12-29T15:18:37;3.35;;;1.80;;
51010;SDS011;37038;50.182;8.624;2022-12-29T15:24:50;7.50;;;2.05;;
51010;SDS011;37038;50.182;8.624;2022-12-29T15:28:01;4.10;;;1.58;;
51010;SDS011;37038;50.182;8.624;2022-12-29T15:37:16;8.52;;;2.10;;
51010;SDS011;37038;50.182;8.624;2022-12-29T15:40:38;5.70;;;2.00;;
51010;SDS011;37038;50.182;8.624;2022-12-29T15:54:05;5.45;;;1.80;;
51010;SDS011;37038;50.182;8.624;2022-12-29T15:57:28;5.03;;;1.98;;
51010;SDS011;37038;50.182;8.624;2022-12-29T16:03:19;4.32;;;2.47;;
51010;SDS011;37038;50.182;8.624;2022-12-29T16:06:10;6.35;;;1.65;;
51010;SDS011;37038;50.182;8.624;2022-12-29T16:09:36;8.07;;;1.98;;
51010;SDS011;37038;50.182;8.624;2022-12-29T16:12:33;5.50;;;1.77;;
51010;SDS011;37038;50.182;8.624;2022-12-29T16:15:28;6.65;;;1.40;;
51010;SDS011;37038;50.182;8.624;2022-12-29T16:18:24;5.50;;;1.73;;
51010;SDS011;37038;50.182;8.624;2022-12-29T16:21:21;4.20;;;1.77;;
51010;SDS011;37038;50.182;8.624;2022-12-29T16:24:22;6.10;;;1.92;;
51010;SDS011;37038;50.182;8.624;2022-12-29T16:27:36;5.57;;;2.00;;
51010;SDS011;37038;50.182;8.624;2022-12-29T16:30:35;3.60;;;1.75;;
51010;SDS011;37038;50.182;8.624;2022-12-29T16:36:39;5.20;;;1.80;;
51010;SDS011;37038;50.182;8.624;2022-12-29T16:39:46;6.05;;;1.92;;
51010;SDS011;37038;50.182;8.624;2022-12-29T16:49:17;5.07;;;2.05;;
51010;SDS011;37038;50.182;8.624;2022-12-29T16:52:20;6.65;;;2.35;;
51010;SDS011;37038;50.182;8.624;2022-12-29T16:55:23;7.72;;;2.17;;
51010;SDS011;37038;50.182;8.624;2022-12-29T16:58:25;8.80;;;2.20;;
51010;SDS011;37038;50.182;8.624;2022-12-29T17:01:55;7.25;;;2.47;;
51010;SDS011;37038;50.182;8.624;2022-12-29T17:05:11;7.65;;;3.03;;
51010;SDS011;37038;50.182;8.624;2022-12-29T17:08:13;8.57;;;2.03;;
51010;SDS011;37038;50.182;8.624;2022-12-29T17:11:34;4.95;;;2.40;;
51010;SDS011;37038;50.182;8.624;2022-12-29T17:15:11;7.13;;;2.25;;
51010;SDS011;37038;50.182;8.624;2022-12-29T17:18:30;7.90;;;2.08;;
51010;SDS011;37038;50.182;8.624;2022-12-29T17:21:37;7.15;;;2.53;;
51010;SDS011;37038;50.182;8.624;2022-12-29T17:24:41;9.57;;;2.00;;
51010;SDS011;37038;50.182;8.624;2022-12-29T17:27:57;4.80;;;2.35;;
51010;SDS011;37038;50.182;8.624;2022-12-29T17:34:35;6.20;;;2.30;;
51010;SDS011;37038;50.182;8.624;2022-12-29T17:37:33;5.57;;;2.58;;
51010;SDS011;37038;50.182;8.624;2022-12-29T17:40:24;6.05;;;1.70;;
51010;SDS011;37038;50.182;8.624;2022-12-29T17:43:19;4.05;;;1.65;;
51010;SDS011;37038;50.182;8.624;2022-12-29T17:46:20;4.85;;;2.00;;
51010;SDS011;37038;50.182;8.624;2022-12-29T17:49:12;5.20;;;1.90;;
51010;SDS011;37038;50.182;8.624;2022-12-29T17:52:08;7.28;;;2.30;;
51010;SDS011;37038;50.182;8.624;2022-12-29T17:55:02;7.68;;;2.13;;
51010;SDS011;37038;50.182;8.624;2022-12-29T17:58:26;5.90;;;2.20;;
51010;SDS011;37038;50.182;8.624;2022-12-29T18:01:20;7.03;;;2.58;;
51010;SDS011;37038;50.182;8.624;2022-12-29T18:04:25;8.45;;;2.13;;
51010;SDS011;37038;50.182;8.624;2022-12-29T18:07:21;9.77;;;2.60;;
51010;SDS011;37038;50.182;8.624;2022-12-29T18:10:22;5.68;;;2.20;;
51010;SDS011;37038;50.182;8.624;2022-12-29T18:13:22;9.15;;;2.97;;
51010;SDS011;37038;50.182;8.624;2022-12-29T18:16:32;8.63;;;2.70;;
51010;SDS011;37038;50.182;8.624;2022-12-29T18:19:27;9.95;;;2.45;;
51010;SDS011;37038;50.182;8.624;2022-12-29T18:22:29;9.10;;;2.10;;
51010;SDS011;37038;50.182;8.624;2022-12-29T18:25:38;5.53;;;2.63;;
51010;SDS011;37038;50.182;8.624;2022-12-29T18:28:47;8.38;;;2.38;;
51010;SDS011;37038;50.182;8.624;2022-12-29T18:31:37;9.13;;;2.40;;
51010;SDS011;37038;50.182;8.624;2022-12-29T18:34:31;12.82;;;3.10;;
51010;SDS011;37038;50.182;8.624;2022-12-29T18:37:23;11.95;;;3.05;;
51010;SDS011;37038;50.182;8.624;2022-12-29T18:40:14;7.20;;;2.45;;
51010;SDS011;37038;50.182;8.624;2022-12-29T18:43:06;9.80;;;2.75;;
51010;SDS011;37038;50.182;8.624;2022-12-29T18:46:03;12.32;;;2.60;;
51010;SDS011;37038;50.182;8.624;2022-12-29T18:48:52;7.93;;;2.40;;
51010;SDS011;37038;50.182;8.624;2022-12-29T18:51:46;7.88;;;3.47;;
51010;SDS011;37038;50.182;8.624;2022-12-29T18:54:39;10.52;;;2.70;;
51010;SDS011;37038;50.182;8.624;2022-12-29T18:57:31;10.93;;;3.13;;
51010;SDS011;37038;50.182;8.624;2022-12-29T19:00:46;7.97;;;3.60;;
51010;SDS011;37038;50.182;8.624;2022-12-29T19:03:48;10.68;;;3.72;;
51010;SDS011;37038;50.182;8.624;2022-12-29T19:06:42;7.35;;;2.78;;
51010;SDS011;37038;50.182;8.624;2022-12-29T19:09:37;9.00;;;3.35;;
51010;SDS011;37038;50.182;8.624;2022-12-29T19:12:26;12.20;;;3.70;;
51010;SDS011;37038;50.182;8.624;2022-12-29T19:15:27;9.18;;;3.33;;
51010;SDS011;37038;50.182;8.624;2022-12-29T19:18:22;8.40;;;3.88;;
51010;SDS011;37038;50.182;8.624;2022-12-29T19:21:39;7.13;;;3.30;;
51010;SDS011;37038;50.182;8.624;2022-12-29T19:24:35;8.73;;;3.20;;
51010;SDS011;37038;50.182;8.624;2022-12-29T19:27:28;12.68;;;4.10;;
51010;SDS011;37038;50.182;8.624;2022-12-29T19:30:47;7.80;;;3.10;;
51010;SDS011;37038;50.182;8.624;2022-12-29T19:34:03;11.85;;;3.38;;
51010;SDS011;37038;50.182;8.624;2022-12-29T19:37:03;11.52;;;3.35;;
51010;SDS011;37038;50.182;8.624;2022-12-29T19:40:25;8.68;;;3.72;;
51010;SDS011;37038;50.182;8.624;2022-12-29T19:43:28;9.35;;;3.25;;
51010;SDS011;37038;50.182;8.624;2022-12-29T19:46:29;11.03;;;3.70;;
51010;SDS011;37038;50.182;8.624;2022-12-29T20:00:20;14.18;;;3.03;;
51010;SDS011;37038;50.182;8.624;2022-12-29T20:03:32;12.77;;;3.75;;
51010;SDS011;37038;50.182;8.624;2022-12-29T20:06:37;7.63;;;3.25;;
51010;SDS011;37038;50.182;8.624;2022-12-29T20:09:35;10.32;;;3.65;;
51010;SDS011;37038;50.182;8.624;2022-12-29T20:12:36;11.35;;;3.63;;
51010;SDS011;37038;50.182;8.624;2022-12-29T20:15:28;12.23;;;3.30;;
51010;SDS011;37038;50.182;8.624;2022-12-29T20:18:55;11.38;;;3.20;;
51010;SDS011;37038;50.182;8.624;2022-12-29T20:21:53;14.32;;;3.60;;
51010;SDS011;37038;50.182;8.624;2022-12-29T20:28:28;11.73;;;3.40;;
51010;SDS011;37038;50.182;8.624;2022-12-29T20:31:36;11.02;;;4.18;;
51010;SDS011;37038;50.182;8.624;2022-12-29T20:34:28;10.05;;;3.50;;
51010;SDS011;37038;50.182;8.624;2022-12-29T20:38:10;12.82;;;3.65;;
51010;SDS011;37038;50.182;8.624;2022-12-29T20:41:12;14.95;;;3.80;;
51010;SDS011;37038;50.182;8.624;2022-12-29T20:44:06;12.20;;;3.15;;
51010;SDS011;37038;50.182;8.624;2022-12-29T20:47:24;16.67;;;4.82;;
51010;SDS011;37038;50.182;8.624;2022-12-29T20:50:37;14.23;;;3.92;;
51010;SDS011;37038;50.182;8.624;2022-12-29T20:53:38;11.88;;;3.88;;
51010;SDS011;37038;50.182;8.624;2022-12-29T20:56:51;9.90;;;3.88;;
51010;SDS011;37038;50.182;8.624;2022-12-29T20:59:50;14.75;;;3.78;;
51010;SDS011;37038;50.182;8.624;2022-12-29T21:02:45;12.15;;;3.75;;
51010;SDS011;37038;50.182;8.624;2022-12-29T21:05:54;11.95;;;3.58;;
51010;SDS011;37038;50.182;8.624;2022-12-29T21:17:13;12.67;;;4.00;;
51010;SDS011;37038;50.182;8.624;2022-12-29T21:20:21;15.10;;;3.92;;
51010;SDS011;37038;50.182;8.624;2022-12-29T21:23:18;11.85;;;3.67;;
51010;SDS011;37038;50.182;8.624;2022-12-29T21:26:18;9.70;;;3.60;;
51010;SDS011;37038;50.182;8.624;2022-12-29T21:29:15;10.70;;;3.08;;
51010;SDS011;37038;50.182;8.624;2022-12-29T21:32:14;11.57;;;3.60;;
51010;SDS011;37038;50.182;8.624;2022-12-29T21:35:06;12.20;;;3.03;;
51010;SDS011;37038;50.182;8.624;2022-12-29T21:38:07;17.40;;;3.28;;
51010;SDS011;37038;50.182;8.624;2022-12-29T21:41:21;15.35;;;3.60;;
51010;SDS011;37038;50.182;8.624;2022-12-29T21:45:08;11.70;;;3.60;;
51010;SDS011;37038;50.182;8.624;2022-12-29T21:48:21;11.57;;;3.35;;
51010;SDS011;37038;50.182;8.624;2022-12-29T21:51:13;17.10;;;4.03;;
51010;SDS011;37038;50.182;8.624;2022-12-29T21:54:23;18.90;;;3.65;;
51010;SDS011;37038;50.182;8.624;2022-12-29T21:57:53;11.15;;;3.58;;
51010;SDS011;37038;50.182;8.624;2022-12-29T22:01:14;11.65;;;3.08;;